Tropical Cyclones
[Index]
Main Index Home Page Stock Weather Photos Extreme Storms Discussion Storm News and Storm Chasing Reports Tropical Cyclones / Hurricanes / Typhoons Weather Data and Links Wild Fires / Bushfires Weather Observation Techniques Weather Picture Catalogue Tornado Pictures and Reports Stock Video Footage and DVDs for sale
Season 1970-1971 Tropical Cyclone LENA Track Map
Season 1970-1971 Summaries: [BoM-AU] [JTWC-AU] [JTWC-SIO] [JTWC-SPAC] [JTWC-SH]
<<- Previous TC | JTWC 1970-1971 Season | Next TC ->>

click for intensity scale information  Lat/long Grid: Show Hide

 Date Labels: Show Hide

Joint Typhoon Warning Centre Cyclone Data

Name: LENA
Number: 769 / 7124

13 Mar 1971 00:00 UTC to 19 Mar 1971 18:00 UTC

    date/time    lat    long     hPa   cat  kts
1971-03-13 00   12.5   154.8            1     45          
1971-03-13 06   13.0   155.3                  35          
1971-03-13 12   13.8   155.9                  35          
1971-03-13 18   14.8   156.4                  35          
1971-03-14 00   16.0   156.9                  35          
1971-03-14 06   17.2   157.0                  35          
1971-03-14 12   18.4   156.6                  30          
1971-03-14 18   19.4   156.0            1     40          
1971-03-15 00   20.2   155.4            1     50          
1971-03-15 06   21.1   154.8            1     45          
1971-03-15 12   21.8   154.3            1     45          
1971-03-15 18   22.4   154.1            1     50          
1971-03-16 00   23.0   154.2            2     55          
1971-03-16 06   23.6   154.7            1     50          
1971-03-16 12   24.0   155.0            1     45          
1971-03-16 18   23.9   155.2            1     45          
1971-03-17 00   23.5   155.5            1     45          
1971-03-17 06   23.2   155.8            1     40          
1971-03-17 12   22.8   156.4                  35          
1971-03-17 18   22.5   157.2                  30          
1971-03-18 00   22.1   158.1                  30          
1971-03-18 06   21.8   159.1                  30          
1971-03-18 12   21.4   160.1                  30          
1971-03-18 18   21.4   160.9                  25          
1971-03-19 00   21.5   161.7                  25          
1971-03-19 06   21.8   162.7                  20          
1971-03-19 12   22.2   163.8                  20          
1971-03-19 18   23.0   165.7                  15          
Winds are 1-min average.

Tropical cyclone tracks developed by Michael Bath using data from the Joint Typhoon Warning Centre Best Tracks and Google Maps.


[Australian Severe Weather index] [Copyright Notice] [Email Contacts] [Search This Site] [Privacy Policy]
Document: tropical_cyclone_lena.htm Updated: 18 September 2016